Lac du Flambeau Reservation, Wisconsin
Current Conditions -  °F | °C
As of 3:32 PM on Monday 24 Nov 2014 (Local Time) from KASX Reporting Station
Light Snow Light Snow  
Wind Chill: 11°   Ceiling: 1900
Heat Index: 24°   Visibility: 3mi
Dew Point: 20°   Wind: 16mph
Humidity: 84%   Direction: 340°NNW
Pressure: 29.48"   Gusts: 23mph
Location:  46.543°N, 90.8706°W
Report Text: KASX 242132Z AUTO 34014G20KT 3SM -SN BR FEW014 BKN019 OVC034 M04/M07 A2948 RMK AO2 P0000 T10441067
Loading
Personal Weather Stations






























Interactive Weather Map New forecast layout! Learn more

10-Day Weather Forecast

Advertisements
Track Severe Weather on mobile